• Join FlightAware (Why Join?)
  • Login
  • US Flag 
09:36AM EDT


 

Airport Tracker/Info


-or-


 

Live Flight TrackerFlight Track Log ✈ N772XJ ✈ 29-Apr-2013 ✈ KOPF - KLAS

Flight Track Log - Related Links

Times and Time Zones

All times are in EDT time to prevent confusion due to time zone crossing. See the N772XJ flight status page for this flight to view local times or setup timezone preferences in your user account.

Time Position Orientation Groundspeed Altitude Reporting Facility
EDT Latitude Longitude Course Direction KTS MPH feet Rate Location/Type
04:26PM 25.9111 -80.2683 67° East 173 199 400  Level Miami Center
04:27PM 25.9378 -80.2000 67° East 244 281 2,500 2,040 Climbing Miami Center
04:28PM 25.9806 -80.2428 318° Northwest 266 306 5,000 2,760 Climbing Miami Center
04:29PM 25.9928 -80.2639 303° West 263 303 6,200 3,000 Climbing Miami Center
04:30PM 26.0244 -80.3317 297° West 263 303 9,200 2,820 Climbing Miami Center
04:31PM 26.0603 -80.4022 299° West 263 303 11,900 2,460 Climbing Miami Center
04:32PM 26.1133 -80.4639 314° West 268 308 14,200 2,220 Climbing Miami Center
04:33PM 26.1964 -80.4758 353° North 261 300 16,400 1,800 Climbing Miami Center
04:34PM 26.2922 -80.4878 354° North 313 360 17,900 1,560 Climbing Miami Center
04:35PM 26.3967 -80.4911 358° North 336 387 19,600 1,500 Climbing Miami Center
04:36PM 26.5031 -80.4944 358° North 366 421 21,000 1,200 Climbing Miami Center
04:37PM 26.5956 -80.5458 334° Northwest 366 421 22,000 1,200 Climbing Miami Center
04:38PM 26.6961 -80.6189 327° Northwest 385 443 23,400 1,200 Climbing Miami Center
04:39PM 26.7756 -80.7006 317° Northwest 391 450 24,400 900 Climbing Miami Center
04:40PM 26.8464 -80.7797 315° West 391 450 25,200 960 Climbing Miami Center
04:41PM 26.9297 -80.8594 320° Northwest 391 450 26,400 1,140 Climbing Miami Center
04:42PM 27.0133 -80.9367 321° Northwest 391 450 27,500 1,260 Climbing Miami Center
04:43PM 27.1067 -81.0286 319° Northwest 396 456 29,000 1,500 Climbing Miami Center
04:44PM 27.1647 -81.1194 306° West 396 456 30,500 1,500 Climbing Miami Center
04:45PM 27.2156 -81.2311 297° West 396 456 32,000 1,500 Climbing Miami Center
04:46PM 27.2367 -81.3581 281° West 396 456 33,500 1,500 Climbing Miami Center
04:47PM 27.2619 -81.4828 283° West 410 472 35,000 1,200 Climbing Miami Center
04:48PM 27.2864 -81.6286 281° West 429 494 36,000 480 Climbing Miami Center
04:49PM 27.3133 -81.7653 283° West 435 501 36,000  Level Miami Center
04:50PM 27.3375 -81.9089 281° West 465 535 36,000 60 Level Miami Center
04:51PM 27.3619 -82.0408 282° West 471 542 36,200 600 Climbing Miami Center
04:52PM 27.3875 -82.2031 280° West 478 550 37,300 960 Climbing Miami Center
04:53PM 27.4133 -82.3447 282° West 473 544 38,200 900 Climbing Miami Center
04:54PM 27.4372 -82.4861 281° West 464 534 39,200 840 Climbing Miami Center
04:55PM 27.4556 -82.6064 280° West 448 516 39,900 360 Climbing Miami Center
04:56PM 27.4792 -82.7431 281° West 448 516 40,000  Climbing Miami Center
04:57PM 27.5064 -82.8942 282° West 455 524 40,000  Level Miami Center
04:58PM 27.5317 -83.0314 282° West 455 524 40,000  Level Miami Center
04:59PM 27.5531 -83.1681 280° West 450 518 40,000  Level Miami Center
05:00PM 27.5742 -83.3028 280° West 450 518 40,000  Level Miami Center
05:01PM 27.5994 -83.4375 282° West 450 518 40,000  Level Miami Center
05:02PM 27.6161 -83.5697 278° West 450 518 40,000  Level Miami Center
05:03PM 27.6411 -83.7069 282° West 450 518 40,000  Level Miami Center
05:04PM 27.6617 -83.8417 280° West 450 518 40,000  Level Miami Center
05:05PM 27.6842 -83.9789 281° West 450 518 40,000 60 Level Miami Center
05:06PM 27.7064 -84.1161 280° West 450 518 40,200 300 Climbing Miami Center
05:07PM 27.7289 -84.2489 281° West 445 512 40,700 420 Climbing Miami Center
05:08PM 27.7469 -84.3908 278° West 440 506 41,200 420 Climbing Jacksonville Center
05:09PM 27.7642 -84.5178 279° West 432 497 41,700 480 Climbing Jacksonville Center
05:10PM 27.7894 -84.6611 281° West 437 503 42,200 480 Climbing Jacksonville Center
05:11PM 27.8144 -84.8117 281° West 440 506 42,700 360 Climbing Jacksonville Center
05:12PM 27.8353 -84.9342 281° West 427 491 43,000 120 Climbing Jacksonville Center
05:13PM 27.8542 -85.0658 279° West 427 491 43,000  Level Jacksonville Center
05:14PM 27.8767 -85.2025 281° West 434 499 43,000  Level Jacksonville Center
05:15PM 27.9056 -85.3325 284° West 434 499 43,000  Level Jacksonville Center
05:16PM 27.9447 -85.4672 288° West 434 499 43,000 -60 Level Jacksonville Center
05:17PM 27.9858 -85.5975 290° West 443 510 42,900  Descending Jacksonville Center
05:18PM 28.0250 -85.7256 289° West 451 519 43,000  Climbing Jacksonville Center
05:19PM 28.0656 -85.8653 288° West 446 513 43,000  Level Jacksonville Center
05:20PM 28.1042 -85.9958 289° West 446 513 43,000  Level Jacksonville Center
05:21PM 28.1428 -86.1264 289° West 446 513 43,000  Level Jacksonville Center
05:22PM 28.1831 -86.2597 289° West 451 519 43,000  Level Jacksonville Center
05:23PM 28.2253 -86.3953 289° West 446 513 43,000  Level Jacksonville Center
05:24PM 28.2633 -86.5286 288° West 446 513 43,000  Level Jacksonville Center
05:25PM 28.3033 -86.6597 289° West 454 522 43,000  Level Jacksonville Center
05:26PM 28.3647 -86.7775 301° West 447 514 43,000  Level Jacksonville Center
05:27PM 28.4358 -86.9031 303° West 453 521 43,000  Level Jacksonville Center
05:29PM 28.5744 -87.1581 302° West 448 516 43,000  Level Houston Center
05:30PM 28.6389 -87.2797 301° West 448 516 43,000  Level Houston Center
05:31PM 28.7086 -87.4100 301° West 444 511 43,000  Level Houston Center
05:32PM 28.7683 -87.5214 301° West 447 514 43,000  Level Houston Center
05:33PM 28.8325 -87.6439 301° West 450 518 43,000  Level Houston Center
05:34PM 28.9100 -87.7892 301° West 447 514 43,000  Level Houston Center
05:35PM 28.9733 -87.9114 301° West 447 514 43,000  Level Houston Center
05:36PM 29.0381 -88.0333 301° West 449 517 43,000  Level Houston Center
05:37PM 29.0967 -88.1461 301° West 448 516 43,000  Level Houston Center
05:38PM 29.1731 -88.2922 301° West 447 514 43,000  Level Houston Center
05:39PM 29.2361 -88.4150 301° West 447 514 43,000  Level Houston Center
05:40PM 29.2961 -88.5389 299° West 445 512 43,000  Level Houston Center
05:41PM 29.3464 -88.6678 294° West 445 512 43,000  Level Houston Center
05:42PM 29.3992 -88.7944 296° West 441 507 43,000  Level Houston Center
05:43PM 29.4506 -88.9239 295° West 445 512 43,000  Level Houston Center
05:44PM 29.5133 -89.0786 295° West 446 513 43,000  Level Houston Center
05:46PM 29.5650 -89.2083 295° West 447 514 43,000  Level Houston Center
05:47PM 29.6169 -89.3378 295° West 446 513 43,000  Level Houston Center
05:48PM 29.6686 -89.4664 295° West 442 509 43,000  Level Houston Center
05:49PM 29.7200 -89.5972 294° West 447 514 43,000  Level Houston Center
05:50PM 29.7706 -89.7281 294° West 445 512 43,000  Level Houston Center
05:51PM 29.8331 -89.8833 295° West 443 510 43,000  Level Houston Center
05:52PM 29.8842 -90.0142 294° West 445 512 43,000  Level Houston Center
05:53PM 29.9361 -90.1447 295° West 445 512 43,000  Level Houston Center
05:54PM 29.9872 -90.2742 295° West 441 507 43,000  Level Houston Center
05:55PM 30.0375 -90.4050 294° West 444 511 43,000  Level Houston Center
05:56PM 30.0881 -90.5353 294° West 445 512 43,000  Level Houston Center
05:57PM 30.1375 -90.6667 294° West 447 514 43,000  Level Houston Center
05:58PM 30.1992 -90.8233 295° West 447 514 43,000  Level Houston Center
05:59PM 30.2497 -90.9564 294° West 451 519 43,000  Level Houston Center
06:00PM 30.2994 -91.0878 294° West 448 516 43,000  Level Houston Center
06:01PM 30.3508 -91.2211 294° West 453 521 43,000  Level Houston Center
06:02PM 30.4006 -91.3536 294° West 450 518 43,000  Level Houston Center
06:03PM 30.4517 -91.4869 294° West 451 519 43,000  Level Houston Center
06:04PM 30.5047 -91.6303 293° West 453 521 43,000  Level Houston Center
06:05PM 30.5556 -91.7633 294° West 451 519 43,000  Level Houston Center
06:06PM 30.6156 -91.9228 294° West 450 518 43,000  Level Houston Center
06:07PM 30.6653 -92.0575 293° West 451 519 43,000  Level Houston Center
06:08PM 30.7147 -92.1908 293° West 450 518 43,000  Level Houston Center
06:09PM 30.7644 -92.3239 294° West 448 516 43,000  Level Houston Center
06:10PM 30.8142 -92.4578 293° West 448 516 43,000  Level Houston Center
06:11PM 30.8628 -92.5922 293° West 448 516 43,000  Level Houston Center
06:12PM 30.9122 -92.7283 293° West 452 520 43,000  Level Houston Center
06:13PM 30.9708 -92.8906 293° West 451 519 43,000  Level Houston Center
06:14PM 31.0214 -93.0236 294° West 451 519 43,000  Level Houston Center
06:16PM 31.0708 -93.1581 293° West 454 522 43,000  Level Houston Center
06:17PM 31.1186 -93.2922 293° West 452 520 43,000  Level Houston Center
06:18PM 31.1667 -93.4272 293° West 452 520 43,000  Level Houston Center
06:19PM 31.2167 -93.5628 293° West 456 525 43,000  Level Houston Center
06:20PM 31.2711 -93.7172 292° West 455 524 43,000  Level Houston Center
06:21PM 31.3200 -93.8553 293° West 460 529 43,000  Level Houston Center
06:22PM 31.3686 -93.9914 293° West 456 525 43,000  Level Houston Center
06:22PM 31.3989 -94.0817 291° West 457 526 43,000  Level Fort Worth Center
06:23PM 31.4464 -94.2186 292° West 457 526 43,000  Level Fort Worth Center
06:24PM 31.4914 -94.3439 293° West 457 526 43,000  Level Fort Worth Center
06:25PM 31.5383 -94.4811 292° West 457 526 43,000  Level Fort Worth Center
06:26PM 31.5875 -94.6186 293° West 457 526 43,000  Level Fort Worth Center
06:27PM 31.6139 -94.7006 291° West 455 524 43,000  Level Houston Center
06:27PM 31.6342 -94.7564 293° West 457 526 43,000  Level Fort Worth Center
06:28PM 31.6789 -94.8917 291° West 457 526 43,000  Level Fort Worth Center
06:29PM 31.7297 -95.0442 291° West 457 526 43,000  Level Fort Worth Center
06:30PM 31.7739 -95.1700 292° West 457 526 43,000  Level Fort Worth Center
06:31PM 31.8200 -95.3083 291° West 457 526 43,000  Level Fort Worth Center
06:32PM 31.8661 -95.4442 292° West 457 526 43,000  Level Fort Worth Center
06:33PM 31.9119 -95.5853 291° West 457 526 43,000  Level Fort Worth Center
06:34PM 31.9600 -95.7264 292° West 457 526 43,000  Level Fort Worth Center
06:35PM 32.0033 -95.8625 291° West 457 526 43,000  Level Fort Worth Center
06:36PM 32.0531 -96.0017 293° West 452 520 43,000  Level Fort Worth Center
06:37PM 32.0983 -96.1381 291° West 452 520 43,000  Level Fort Worth Center
06:38PM 32.1456 -96.2797 292° West 457 526 43,000  Level Fort Worth Center
06:39PM 32.1906 -96.4217 291° West 457 526 43,000  Level Fort Worth Center
06:40PM 32.2356 -96.5733 289° West 457 526 43,000  Level Fort Worth Center
06:41PM 32.2825 -96.7156 291° West 457 526 43,000  Level Fort Worth Center
06:42PM 32.3228 -96.8406 291° West 463 533 43,000  Level Fort Worth Center
06:43PM 32.3733 -96.9928 292° West 463 533 43,000  Level Fort Worth Center
06:44PM 32.4133 -97.1206 290° West 463 533 43,000  Level Fort Worth Center
06:45PM 32.4639 -97.2781 291° West 463 533 43,000  Level Fort Worth Center
06:46PM 32.5036 -97.4036 291° West 465 535 43,000  Level Fort Worth Center
06:47PM 32.5514 -97.5614 290° West 465 535 43,000  Level Fort Worth Center
06:48PM 32.5931 -97.6894 291° West 465 535 43,000  Level Fort Worth Center
06:49PM 32.6406 -97.8500 289° West 470 541 43,000  Level Fort Worth Center
06:50PM 32.6817 -97.9761 291° West 470 541 43,000  Level Fort Worth Center
06:51PM 32.7311 -98.1369 290° West 470 541 43,000  Level Fort Worth Center
06:52PM 32.7719 -98.2683 290° West 470 541 43,000  Level Fort Worth Center
06:53PM 32.8208 -98.4269 290° West 470 541 43,000  Level Fort Worth Center
06:54PM 32.8656 -98.5708 290° West 470 541 43,000  Level Fort Worth Center
06:55PM 32.9122 -98.7150 291° West 470 541 43,000  Level Fort Worth Center
06:56PM 32.9544 -98.8592 289° West 470 541 43,000  Level Fort Worth Center
06:57PM 33.0006 -99.0061 291° West 470 541 43,000  Level Fort Worth Center
06:58PM 33.0447 -99.1531 290° West 470 541 43,000  Level Fort Worth Center
06:59PM 33.0864 -99.3003 289° West 470 541 43,000  Level Fort Worth Center
07:00PM 33.1258 -99.4350 289° West 470 541 43,000  Level Fort Worth Center
07:01PM 33.1717 -99.5800 291° West 470 541 43,000  Level Fort Worth Center
07:02PM 33.2128 -99.7275 288° West 470 541 43,000  Level Fort Worth Center
07:03PM 33.2578 -99.8778 290° West 470 541 43,000  Level Fort Worth Center
07:04PM 33.3008 -100.0256 289° West 470 541 43,000  Level Fort Worth Center
07:05PM 33.3436 -100.1736 289° West 470 541 43,000  Level Fort Worth Center
07:06PM 33.3861 -100.3217 289° West 470 541 43,000  Level Fort Worth Center
07:07PM 33.4283 -100.4722 289° West 470 541 43,000  Level Fort Worth Center
07:08PM 33.4728 -100.6208 290° West 470 541 43,000  Level Fort Worth Center
07:09PM 33.5128 -100.7692 288° West 470 541 43,000  Level Fort Worth Center
07:10PM 33.5622 -100.9356 290° West 470 541 43,000  Level Fort Worth Center
07:11PM 33.5981 -101.0717 288° West 478 550 43,000  Level Fort Worth Center
07:12PM 33.6453 -101.2383 289° West 483 556 43,000  Level Fort Worth Center
07:13PM 33.6828 -101.3747 288° West 483 556 43,000  Level Fort Worth Center
07:14PM 33.7294 -101.5417 289° West 483 556 43,000  Level Fort Worth Center
07:15PM 33.7686 -101.6811 289° West 484 557 43,000  Level Fort Worth Center
07:16PM 33.8072 -101.8378 287° West 489 563 43,000  Level Fort Worth Center
07:17PM 33.8553 -102.0078 289° West 488 562 43,000  Level Fort Worth Center
07:18PM 33.8939 -102.1450 289° West 482 555 43,000  Level Fort Worth Center
07:20PM 33.9733 -102.4506 287° West 483 556 43,000  Level Albuquerque Center
07:21PM 34.0222 -102.6339 288° West 482 555 43,000  Level Albuquerque Center
07:22PM 34.0633 -102.7861 288° West 481 554 43,000  Level Albuquerque Center
07:23PM 34.1044 -102.9392 288° West 481 554 43,000  Level Albuquerque Center
07:24PM 34.1450 -103.0925 288° West 482 555 43,000  Level Albuquerque Center
07:25PM 34.1844 -103.2475 287° West 484 557 43,000  Level Albuquerque Center
07:26PM 34.2247 -103.4022 288° West 485 558 43,000  Level Albuquerque Center
07:27PM 34.2664 -103.5675 287° West 484 557 43,000  Level Albuquerque Center
07:28PM 34.3050 -103.7256 287° West 485 558 43,000  Level Albuquerque Center
07:30PM 34.3444 -103.8822 287° West 482 555 43,000  Level Albuquerque Center
07:31PM 34.3836 -104.0386 287° West 480 552 43,000  Level Albuquerque Center
07:32PM 34.4297 -104.2217 287° West 481 554 43,000  Level Albuquerque Center
07:33PM 34.4683 -104.3794 287° West 482 555 43,000  Level Albuquerque Center
07:34PM 34.5083 -104.5378 287° West 483 556 43,000  Level Albuquerque Center
07:35PM 34.5469 -104.6961 287° West 483 556 43,000  Level Albuquerque Center
07:36PM 34.5850 -104.8547 286° West 483 556 43,000  Level Albuquerque Center
07:37PM 34.6236 -105.0111 287° West 481 554 43,000  Level Albuquerque Center
07:38PM 34.6628 -105.1706 287° West 485 558 43,000  Level Albuquerque Center
07:39PM 34.7014 -105.3306 286° West 487 560 43,000  Level Albuquerque Center
07:40PM 34.7392 -105.4911 286° West 488 562 43,000  Level Albuquerque Center
07:41PM 34.7767 -105.6511 286° West 488 562 43,000  Level Albuquerque Center
07:42PM 34.8136 -105.8122 286° West 489 563 43,000  Level Albuquerque Center
07:43PM 34.8539 -105.9789 286° West 488 562 43,000  Level Albuquerque Center
07:44PM 34.8900 -106.1364 286° West 485 558 43,000  Level Albuquerque Center
07:45PM 34.9253 -106.2931 285° West 481 554 43,000  Level Albuquerque Center
07:46PM 34.9608 -106.4489 286° West 480 552 43,000  Level Albuquerque Center
07:47PM 35.0014 -106.6278 286° West 487 560 43,000  Level Albuquerque Center
07:48PM 35.0344 -106.7786 285° West 484 557 43,000  Level Albuquerque Center
07:49PM 35.0747 -106.9547 286° West 481 554 43,000  Level Albuquerque Center
07:50PM 35.1081 -107.1075 285° West 486 559 43,000  Level Albuquerque Center
07:51PM 35.1458 -107.2861 285° West 488 562 43,000  Level Albuquerque Center
07:52PM 35.1797 -107.4369 285° West 484 557 43,000  Level Albuquerque Center
07:53PM 35.2114 -107.5911 284° West 485 558 43,000  Level Albuquerque Center
07:54PM 35.2497 -107.7686 285° West 484 557 43,000  Level Albuquerque Center
07:55PM 35.2814 -107.9214 284° West 484 557 43,000  Level Albuquerque Center
07:56PM 35.3183 -108.1003 284° West 484 557 43,000  Level Albuquerque Center
07:57PM 35.3497 -108.2547 284° West 486 559 43,000  Level Albuquerque Center
07:58PM 35.3822 -108.4064 285° West 483 556 43,000  Level Albuquerque Center
07:59PM 35.4186 -108.5869 284° West 485 558 43,000  Level Albuquerque Center
08:00PM 35.4506 -108.7389 285° West 483 556 43,000  Level Albuquerque Center
08:01PM 35.4783 -108.9175 281° West 479 551 43,000  Level Albuquerque Center
08:02PM 35.4869 -109.0756 274° West 482 555 43,000  Level Albuquerque Center
08:03PM 35.4939 -109.2333 273° West 482 555 43,000  Level Albuquerque Center
08:04PM 35.5025 -109.4167 273° West 481 554 43,000  Level Albuquerque Center
08:05PM 35.5094 -109.5744 273° West 483 556 43,000  Level Albuquerque Center
08:06PM 35.5169 -109.7567 273° West 480 552 43,000  Level Albuquerque Center
08:07PM 35.5233 -109.9125 273° West 477 549 43,000  Level Albuquerque Center
08:08PM 35.5289 -110.0694 273° West 479 551 43,000  Level Albuquerque Center
08:10PM 35.5350 -110.2514 272° West 478 550 43,000  Level Albuquerque Center
08:11PM 35.5408 -110.4092 273° West 481 554 43,000 -240 Level Albuquerque Center
08:12PM 35.5467 -110.5925 272° West 482 555 42,600 -660 Descending Albuquerque Center
08:13PM 35.5522 -110.7517 273° West 484 557 41,700 -1,020 Descending Albuquerque Center
08:14PM 35.5594 -110.9392 273° West 490 564 40,500 -1,440 Descending Albuquerque Center
08:15PM 35.5650 -111.1039 272° West 499 574 38,800 -2,100 Descending Albuquerque Center
08:16PM 35.5717 -111.2681 273° West 504 580 36,200 -3,180 Descending Albuquerque Center
08:17PM 35.5764 -111.4403 272° West 492 566 32,300 -3,060 Descending Albuquerque Center
08:18PM 35.5811 -111.6056 272° West 492 566 30,000 -1,140 Descending Albuquerque Center
08:19PM 35.5853 -111.7744 272° West 493 567 30,000  Level Albuquerque Center
08:20PM 35.5947 -111.9850 273° West 514 592 30,000  Level Albuquerque Center
08:21PM 35.5989 -112.1622 272° West 520 598 30,000  Level Albuquerque Center
08:22PM 35.6014 -112.3367 271° West 519 597 30,000  Level Albuquerque Center
08:23PM 35.6058 -112.5147 272° West 524 603 30,000  Level Albuquerque Center
08:24PM 35.6094 -112.6917 271° West 527 606 30,000  Level Albuquerque Center
08:25PM 35.6147 -112.9022 272° West 525 604 30,000  Level Albuquerque Center
08:25PM 35.6147 -112.9278 270° West 524 603 30,000  Level Los Angeles Center
08:26PM 35.6169 -113.1094 271° West 524 603 30,000  Level Los Angeles Center
08:27PM 35.6200 -113.2878 271° West 519 597 30,000 -1,500 Level Los Angeles Center
08:28PM 35.6236 -113.5017 271° West 526 605 26,900 -3,000 Descending Los Angeles Center
08:29PM 35.6406 -113.6661 277° West 508 585 23,900 -2,880 Descending Los Angeles Center
08:30PM 35.6636 -113.8197 281° West 472 543 21,000 -2,760 Descending Los Angeles Center
08:31PM 35.6847 -113.9683 280° West 453 521 18,300 -2,520 Descending Los Angeles Center
08:32PM 35.7050 -114.1136 280° West 428 493 15,900 -2,340 Descending Los Angeles Center
08:33PM 35.7083 -114.1647 275° West 390 449 15,100 -1,860 Descending Los Angeles Center
08:33PM 35.7217 -114.2358 283° West 363 418 14,000 -1,620 Descending Los Angeles Center
08:34PM 35.7419 -114.3378 284° West 315 362 12,400 -1,020 Descending Los Angeles Center
08:36PM 35.8150 -114.4028 324° Northwest 287 330 11,700 -900 Descending Los Angeles Center
08:37PM 35.8975 -114.4272 347° North 295 339 10,600 -1,320 Descending Los Angeles Center
08:38PM 35.9783 -114.4503 347° North 263 303 9,200 -1,380 Descending Los Angeles Center
08:39PM 36.0325 -114.4986 324° Northwest 247 284 7,800 -1,140 Descending Los Angeles Center
08:40PM 36.0844 -114.5478 323° Northwest 245 282 7,000 -420 Descending Los Angeles Center
08:41PM 36.1494 -114.5869 334° Northwest 244 281 7,000  Level Los Angeles Center
08:42PM 36.1558 -114.6647 276° West 236 272 7,000 -240 Level Los Angeles Center
08:43PM 36.1508 -114.7306 265° West 183 211 6,600 -540 Descending Los Angeles Center
08:44PM 36.1444 -114.7886 262° West 169 194 6,000 -360 Descending Los Angeles Center
08:45PM 36.1403 -114.8486 265° West 187 215 6,000  Level Los Angeles Center
08:45PM 36.1386 -114.8631 262° West 184 212 6,000  Level Los Angeles Center
08:46PM 36.1361 -114.9086 266° West 176 203 6,000  Level Los Angeles Center
08:46PM 36.1344 -114.9244 263° West 181 208 6,000 -240 Level Los Angeles Center
08:47PM 36.1306 -114.9719 264° West 184 212 5,800 -540 Descending Los Angeles Center
08:47PM 36.1325 -114.9900 278° West 187 215 5,500 -1,200 Descending Los Angeles Center
08:48PM 36.1350 -115.0422 273° West 187 215 4,600 -1,080 Descending Los Angeles Center
08:48PM 36.1358 -115.0531 275° West 186 214 4,400 -720 Descending Los Angeles Center
08:49PM 36.1375 -115.1028 272° West 175 201 3,900 -540 Descending Los Angeles Center
08:49PM 36.1375 -115.1133 270° West 182 209 3,900 -1,140 Level Los Angeles Center
08:50PM 36.1208 -115.1456 237° Southwest 134 154 2,800 -1,500 Descending Los Angeles Center
08:50PM 36.1092 -115.1486 192° South 150 173 2,400 -540 Descending Los Angeles Center
08:51PM 36.0869 -115.1628 207° Southwest 134 154 2,100 -300 Descending Los Angeles Center
08:53PM 36.0801 -115.1523 270° West  Level Estimated